Time;durP1;ratioP1;P1;durP2;ratioP2;P2;SDS_P1;SDS_P2;PMS_P1;PMS_P2;Temp;Humidity;BMP_temperature;BMP_pressure;BME280_temperature;BME280_humidity;BME280_pressure;Samples;Min_cycle;Max_cycle;Signal;HPM_P1;HPM_P2
2022/03/28 00:01:19;;;;;;;10.63;7.00;;;10.30;99.90;;;;;;5069190;28;20261;-66
2022/03/28 00:03:45;;;;;;;13.57;6.97;;;10.30;99.90;;;;;;5071812;28;20417;-66
2022/03/28 00:06:11;;;;;;;15.13;7.00;;;10.30;99.90;;;;;;5063212;28;20789;-66
2022/03/28 00:08:37;;;;;;;14.73;7.63;;;10.30;99.90;;;;;;5067210;28;20413;-65
2022/03/28 00:11:06;;;;;;;10.47;6.30;;;10.20;99.90;;;;;;5051767;28;20180;-66
2022/03/28 00:13:31;;;;;;;11.17;6.90;;;10.10;99.90;;;;;;5051631;28;20429;-66
2022/03/28 00:15:57;;;;;;;13.63;6.80;;;10.10;99.90;;;;;;5051424;28;20440;-66
2022/03/28 00:18:23;;;;;;;13.60;6.43;;;10.10;99.90;;;;;;5051203;28;20943;-66
2022/03/28 00:20:50;;;;;;;12.13;6.97;;;10.10;99.90;;;;;;5051499;28;20296;-66
2022/03/28 00:23:16;;;;;;;10.60;5.97;;;10.10;99.90;;;;;;5051247;28;20206;-66
2022/03/28 00:25:45;;;;;;;11.47;7.03;;;10.00;99.90;;;;;;5051331;28;20510;-66
2022/03/28 00:28:11;;;;;;;10.80;6.53;;;10.00;99.90;;;;;;5060051;28;20448;-67
2022/03/28 00:30:38;;;;;;;11.30;6.57;;;9.90;99.90;;;;;;5051062;28;20422;-66
2022/03/28 00:33:04;;;;;;;9.93;6.10;;;10.00;99.90;;;;;;5051350;28;20465;-66
2022/03/28 00:35:30;;;;;;;13.30;7.33;;;9.90;99.90;;;;;;5051137;28;20434;-67
2022/03/28 00:37:56;;;;;;;9.97;5.60;;;9.90;99.90;;;;;;5051065;28;20454;-66
2022/03/28 00:40:23;;;;;;;10.90;6.50;;;10.00;99.90;;;;;;5050973;28;20466;-66
2022/03/28 00:42:50;;;;;;;10.60;6.50;;;10.00;99.90;;;;;;5051191;28;20183;-66
2022/03/28 00:45:16;;;;;;;12.10;6.80;;;9.90;99.90;;;;;;5050855;28;20420;-66
2022/03/28 00:47:43;;;;;;;12.37;6.80;;;9.90;99.90;;;;;;5050848;28;20623;-66
2022/03/28 00:50:10;;;;;;;10.27;6.23;;;9.80;99.90;;;;;;5051132;28;20418;-66
2022/03/28 00:52:38;;;;;;;12.97;5.70;;;9.80;99.90;;;;;;5051109;28;20423;-66
2022/03/28 00:55:05;;;;;;;12.30;6.50;;;9.80;99.90;;;;;;5050985;28;20430;-66
2022/03/28 00:57:32;;;;;;;12.40;6.60;;;9.80;99.90;;;;;;5050382;28;20447;-66
2022/03/28 00:59:59;;;;;;;13.63;6.67;;;9.80;99.90;;;;;;5063151;28;20588;-67
2022/03/28 01:02:26;;;;;;;9.50;6.30;;;9.70;99.90;;;;;;5057279;28;20422;-66
2022/03/28 01:04:52;;;;;;;14.03;6.57;;;9.60;99.90;;;;;;5056370;28;20909;-66
2022/03/28 01:07:17;;;;;;;12.20;6.80;;;9.60;99.90;;;;;;5050567;28;20437;-66
2022/03/28 01:09:44;;;;;;;11.07;6.30;;;9.60;99.90;;;;;;5051101;28;20175;-66
2022/03/28 01:12:10;;;;;;;12.20;7.13;;;9.60;99.90;;;;;;5050537;28;20189;-66
2022/03/28 01:14:37;;;;;;;11.03;6.57;;;9.60;99.90;;;;;;5050684;28;20563;-66
2022/03/28 01:19:55;;;;;;;11.50;5.97;;;9.60;99.90;;;;;;5052093;28;20456;-66
2022/03/28 01:22:21;;;;;;;9.20;5.20;;;9.50;99.90;;;;;;5050593;28;20425;-66
2022/03/28 01:24:47;;;;;;;10.00;6.60;;;9.40;99.90;;;;;;5050368;28;20437;-66
2022/03/28 01:27:14;;;;;;;12.07;7.07;;;9.30;99.90;;;;;;5050222;28;20199;-65
2022/03/28 01:29:43;;;;;;;9.27;5.90;;;9.40;99.90;;;;;;5050338;28;20418;-66
2022/03/28 01:32:09;;;;;;;11.67;6.10;;;9.40;99.90;;;;;;5050493;28;20426;-66
2022/03/28 01:34:35;;;;;;;10.10;5.40;;;9.30;99.90;;;;;;5049754;28;20813;-66
2022/03/28 01:37:01;;;;;;;11.87;6.37;;;9.30;99.90;;;;;;5049999;28;20453;-66
2022/03/28 01:39:27;;;;;;;14.23;5.93;;;9.20;99.90;;;;;;5050341;28;20192;-66
2022/03/28 01:41:53;;;;;;;14.23;6.80;;;9.20;99.90;;;;;;5050847;28;20176;-66
2022/03/28 01:44:18;;;;;;;10.40;5.73;;;9.20;99.90;;;;;;5050321;28;20178;-66
2022/03/28 01:46:48;;;;;;;10.13;5.90;;;9.20;99.90;;;;;;5049999;28;20446;-66
2022/03/28 01:49:16;;;;;;;11.67;6.50;;;9.10;99.90;;;;;;5050279;28;20186;-66
2022/03/28 01:51:42;;;;;;;11.77;6.63;;;9.00;99.90;;;;;;5050066;28;20797;-66
2022/03/28 01:54:08;;;;;;;11.63;6.80;;;9.00;99.90;;;;;;5050248;28;20453;-65
2022/03/28 01:56:35;;;;;;;12.93;6.17;;;9.00;99.90;;;;;;5049798;28;20437;-65
2022/03/28 01:59:02;;;;;;;10.33;6.10;;;9.00;99.90;;;;;;5050057;28;20446;-66
2022/03/28 02:01:28;;;;;;;10.47;6.30;;;9.00;99.90;;;;;;5049940;28;20519;-65
2022/03/28 02:03:53;;;;;;;12.33;6.60;;;9.00;99.90;;;;;;5050483;28;20802;-66
2022/03/28 02:06:22;;;;;;;13.00;5.67;;;8.90;99.90;;;;;;5049849;28;20180;-66
2022/03/28 02:08:48;;;;;;;12.93;6.23;;;8.80;99.90;;;;;;5050085;28;20187;-65
2022/03/28 02:11:14;;;;;;;9.53;6.30;;;8.80;99.90;;;;;;5050004;28;20414;-65
2022/03/28 02:13:40;;;;;;;11.83;7.03;;;8.90;99.90;;;;;;5049922;28;20206;-66
2022/03/28 02:16:06;;;;;;;12.23;6.50;;;8.80;99.90;;;;;;5049952;28;20433;-66
2022/03/28 02:18:32;;;;;;;12.17;6.23;;;8.80;99.90;;;;;;5049747;28;20188;-66
2022/03/28 02:20:58;;;;;;;10.83;5.93;;;8.80;99.90;;;;;;5049790;28;20450;-66
2022/03/28 02:23:24;;;;;;;12.67;6.43;;;8.80;99.90;;;;;;5049821;28;20460;-66
2022/03/28 02:25:50;;;;;;;10.70;5.90;;;8.80;99.90;;;;;;5049827;28;20727;-66
2022/03/28 02:28:16;;;;;;;12.33;6.13;;;8.70;99.90;;;;;;5049563;28;20507;-66
2022/03/28 02:30:42;;;;;;;9.30;5.93;;;8.70;99.90;;;;;;5049895;28;20417;-65
2022/03/28 02:33:08;;;;;;;10.80;5.90;;;8.70;99.90;;;;;;5049759;28;20183;-66
2022/03/28 02:35:35;;;;;;;10.13;5.93;;;8.70;99.90;;;;;;5049593;28;20426;-66
2022/03/28 02:38:01;;;;;;;11.67;5.90;;;8.60;99.90;;;;;;5049682;28;20465;-66
2022/03/28 02:40:28;;;;;;;11.27;5.93;;;8.60;99.90;;;;;;5049539;28;20985;-66
2022/03/28 02:42:57;;;;;;;12.40;6.87;;;8.60;99.90;;;;;;5049755;28;20414;-66
2022/03/28 02:45:27;;;;;;;11.60;5.60;;;8.60;99.90;;;;;;5049554;28;20418;-66
2022/03/28 02:47:54;;;;;;;13.23;6.70;;;8.60;99.90;;;;;;5052693;28;20442;-65
2022/03/28 02:50:19;;;;;;;11.80;6.30;;;8.60;99.90;;;;;;5053026;28;20515;-66
2022/03/28 02:52:46;;;;;;;15.97;7.00;;;8.70;99.90;;;;;;5053164;28;20505;-66
2022/03/28 02:55:11;;;;;;;9.67;6.50;;;8.70;99.90;;;;;;5053041;28;20234;-65
2022/03/28 02:57:37;;;;;;;12.60;7.20;;;8.70;99.90;;;;;;5052862;28;20434;-66
2022/03/28 03:00:07;;;;;;;10.37;6.63;;;8.70;99.90;;;;;;5052985;28;20935;-65
2022/03/28 03:02:34;;;;;;;12.73;7.00;;;8.50;99.90;;;;;;5052967;28;20422;-66
2022/03/28 03:05:00;;;;;;;12.17;6.43;;;8.50;99.90;;;;;;5052985;28;20455;-66
2022/03/28 03:07:26;;;;;;;11.73;6.70;;;8.50;99.90;;;;;;5052582;28;20438;-65
2022/03/28 03:09:52;;;;;;;10.50;6.50;;;8.40;99.90;;;;;;5052754;28;20452;-66
2022/03/28 03:12:18;;;;;;;9.00;5.70;;;8.30;99.90;;;;;;5052759;28;20210;-65
2022/03/28 03:14:43;;;;;;;9.13;5.60;;;8.30;99.90;;;;;;5052831;28;20179;-66
2022/03/28 03:17:09;;;;;;;9.77;5.90;;;8.40;99.90;;;;;;5052291;28;20273;-66
2022/03/28 03:19:35;;;;;;;9.90;6.17;;;8.40;99.90;;;;;;5052749;28;20184;-66
2022/03/28 03:22:01;;;;;;;10.97;6.40;;;8.30;99.90;;;;;;5052624;28;20179;-65
2022/03/28 03:24:26;;;;;;;9.53;6.60;;;8.30;99.90;;;;;;5052568;28;20257;-66
2022/03/28 03:26:52;;;;;;;12.07;6.37;;;8.30;99.90;;;;;;5052290;28;20666;-65
2022/03/28 03:29:18;;;;;;;10.90;6.40;;;8.20;99.90;;;;;;5052431;28;20587;-65
2022/03/28 03:31:44;;;;;;;11.63;6.50;;;8.20;99.90;;;;;;5052508;28;20514;-65
2022/03/28 03:34:09;;;;;;;8.67;5.67;;;8.10;99.90;;;;;;5052364;28;20180;-66
2022/03/28 03:36:35;;;;;;;10.17;6.40;;;8.10;99.90;;;;;;5052165;28;20225;-65
2022/03/28 03:39:02;;;;;;;11.30;6.33;;;8.10;99.90;;;;;;5052477;28;20493;-65
2022/03/28 03:41:28;;;;;;;8.87;5.67;;;8.10;99.90;;;;;;5052343;28;20522;-66
2022/03/28 03:43:53;;;;;;;9.27;5.53;;;8.10;99.90;;;;;;5052195;28;20505;-65
2022/03/28 03:46:19;;;;;;;12.77;6.93;;;8.10;99.90;;;;;;5052256;28;20222;-65
2022/03/28 03:48:45;;;;;;;11.30;6.80;;;8.10;99.90;;;;;;5052097;28;20189;-65
2022/03/28 03:51:11;;;;;;;12.07;6.03;;;8.10;99.90;;;;;;5052083;28;20307;-66
2022/03/28 03:53:37;;;;;;;11.40;7.43;;;8.20;99.90;;;;;;5052001;28;20449;-66
2022/03/28 03:56:03;;;;;;;10.80;6.60;;;8.10;99.90;;;;;;5052012;28;20176;-66
2022/03/28 03:58:29;;;;;;;13.20;7.97;;;8.10;99.90;;;;;;5051104;28;20215;-65
2022/03/28 04:00:55;;;;;;;10.13;6.30;;;8.10;99.90;;;;;;5051837;28;20434;-65
2022/03/28 04:03:20;;;;;;;11.67;6.07;;;8.00;99.90;;;;;;5052010;28;20183;-66
2022/03/28 04:05:47;;;;;;;8.93;5.60;;;;;;;;;;5051813;28;20195;-65
2022/03/28 04:08:12;;;;;;;12.20;6.10;;;7.90;99.90;;;;;;5051814;28;20249;-65
2022/03/28 04:10:38;;;;;;;12.07;6.83;;;8.00;99.90;;;;;;5051578;28;20466;-66
2022/03/28 04:13:05;;;;;;;9.20;6.00;;;8.00;99.90;;;;;;5035597;28;20218;-65
2022/03/28 04:15:31;;;;;;;10.43;5.57;;;8.00;99.90;;;;;;5051483;28;20421;-66
2022/03/28 04:17:57;;;;;;;10.13;6.20;;;7.90;99.90;;;;;;5051561;28;20872;-66
2022/03/28 04:20:23;;;;;;;11.97;6.20;;;7.80;99.90;;;;;;5051538;28;20183;-66
2022/03/28 04:22:51;;;;;;;10.50;6.07;;;7.80;99.90;;;;;;5051598;28;20560;-66
2022/03/28 04:25:17;;;;;;;14.73;6.10;;;7.80;99.90;;;;;;5051537;28;20222;-66
2022/03/28 04:27:43;;;;;;;16.10;6.33;;;7.80;99.90;;;;;;5051312;28;20549;-65
2022/03/28 04:30:11;;;;;;;13.37;6.77;;;7.70;99.90;;;;;;5051223;28;20461;-65
2022/03/28 04:32:37;;;;;;;12.60;6.23;;;7.60;99.90;;;;;;5051282;28;20413;-65
2022/03/28 04:35:04;;;;;;;10.20;5.80;;;7.60;99.90;;;;;;5051338;28;20418;-65
2022/03/28 04:37:35;;;;;;;12.30;6.80;;;7.70;99.90;;;;;;5050900;28;20442;-65
2022/03/28 04:40:03;;;;;;;11.07;6.43;;;7.70;99.90;;;;;;5051215;28;20429;-66
2022/03/28 04:42:29;;;;;;;8.30;5.17;;;7.70;99.90;;;;;;5050928;28;20425;-65
2022/03/28 04:44:54;;;;;;;11.53;6.00;;;7.70;99.90;;;;;;5051141;28;20418;-65
2022/03/28 04:47:20;;;;;;;11.30;6.97;;;7.70;99.90;;;;;;5050662;28;20555;-64
2022/03/28 04:49:46;;;;;;;11.00;6.23;;;7.60;99.90;;;;;;5050923;28;20264;-66
2022/03/28 04:52:12;;;;;;;8.20;5.67;;;7.50;99.90;;;;;;5051033;28;20182;-66
2022/03/28 04:54:38;;;;;;;9.10;5.67;;;7.40;99.90;;;;;;5051144;28;20422;-65
2022/03/28 04:57:04;;;;;;;9.30;5.27;;;7.50;99.90;;;;;;5050645;28;20434;-65
2022/03/28 04:59:31;;;;;;;10.23;5.90;;;7.50;99.90;;;;;;5050633;28;20198;-65
2022/03/28 05:01:57;;;;;;;11.57;5.87;;;7.50;99.90;;;;;;5050789;28;20428;-65
2022/03/28 05:04:23;;;;;;;10.93;5.90;;;7.50;99.90;;;;;;5050683;28;20794;-65
2022/03/28 05:06:49;;;;;;;11.87;6.20;;;7.40;99.90;;;;;;5050504;28;20544;-66
2022/03/28 05:09:15;;;;;;;12.87;6.90;;;7.40;99.90;;;;;;5050151;28;20186;-66
2022/03/28 05:11:41;;;;;;;9.10;5.73;;;7.40;99.90;;;;;;5050050;28;20208;-66
2022/03/28 05:14:07;;;;;;;8.03;5.47;;;7.30;99.90;;;;;;5050527;28;20920;-65
2022/03/28 05:16:33;;;;;;;9.93;5.90;;;7.20;99.90;;;;;;5050357;28;20450;-65
2022/03/28 05:18:59;;;;;;;9.43;6.33;;;7.30;99.90;;;;;;5050598;28;20640;-65
2022/03/28 05:21:25;;;;;;;8.97;5.97;;;7.30;99.90;;;;;;5050539;28;20199;-65
2022/03/28 05:23:53;;;;;;;10.70;6.00;;;7.40;99.90;;;;;;5050497;28;20193;-66
2022/03/28 05:26:19;;;;;;;12.63;5.87;;;7.40;99.90;;;;;;5050120;28;20222;-65
2022/03/28 05:28:45;;;;;;;10.30;6.50;;;7.40;99.90;;;;;;5050321;28;20457;-65
2022/03/28 05:31:11;;;;;;;12.10;6.90;;;7.30;99.90;;;;;;5050174;28;20209;-66
2022/03/28 05:33:36;;;;;;;11.30;5.90;;;7.40;99.90;;;;;;5050155;28;20210;-66
2022/03/28 05:36:02;;;;;;;12.33;7.87;;;7.40;99.90;;;;;;5050107;28;20194;-65
2022/03/28 05:38:28;;;;;;;11.03;6.80;;;7.40;99.90;;;;;;5050168;28;20198;-65
2022/03/28 05:40:56;;;;;;;11.63;6.40;;;7.40;99.90;;;;;;5050129;28;20452;-65
2022/03/28 05:43:23;;;;;;;16.07;7.20;;;7.50;99.90;;;;;;5050367;28;20429;-65
2022/03/28 05:45:50;;;;;;;12.80;6.17;;;7.50;99.90;;;;;;5050306;28;20457;-65
2022/03/28 05:48:16;;;;;;;12.33;7.20;;;7.50;99.90;;;;;;5050113;28;20434;-65
2022/03/28 05:50:42;;;;;;;12.70;6.30;;;7.50;99.90;;;;;;5050073;28;20992;-65
2022/03/28 05:53:09;;;;;;;12.10;6.63;;;7.50;99.90;;;;;;5050472;28;20428;-66
2022/03/28 05:55:35;;;;;;;11.60;6.90;;;7.60;99.90;;;;;;5050081;28;20232;-65
2022/03/28 05:58:01;;;;;;;12.90;7.47;;;7.70;99.90;;;;;;5049637;28;20538;-65
2022/03/28 06:00:26;;;;;;;17.33;7.60;;;7.80;99.90;;;;;;5050289;28;20606;-65
2022/03/28 06:02:55;;;;;;;13.43;7.27;;;7.80;99.90;;;;;;5080835;22;20227;-68
2022/03/28 06:05:20;;;;;;;13.37;8.73;;;7.90;99.90;;;;;;5081386;28;20183;-69
2022/03/28 06:07:46;;;;;;;14.47;7.40;;;7.90;99.90;;;;;;5082117;28;20424;-70
2022/03/28 06:10:12;;;;;;;14.90;8.63;;;7.90;99.90;;;;;;5084452;28;20202;-70
2022/03/28 06:12:37;;;;;;;12.80;7.00;;;7.90;99.90;;;;;;5081844;28;20173;-70
2022/03/28 06:15:04;;;;;;;11.93;7.07;;;7.90;99.90;;;;;;5081862;28;20234;-70
2022/03/28 06:17:29;;;;;;;12.87;7.23;;;8.00;99.90;;;;;;5085101;28;20236;-70
2022/03/28 06:19:55;;;;;;;14.87;7.17;;;7.90;99.90;;;;;;5093712;28;20466;-70
2022/03/28 06:22:21;;;;;;;15.47;7.23;;;7.80;99.90;;;;;;5096270;28;20178;-70
2022/03/28 06:24:47;;;;;;;14.80;8.50;;;7.90;99.90;;;;;;5097392;28;20208;-70
2022/03/28 06:27:13;;;;;;;12.30;7.97;;;8.00;99.90;;;;;;5097420;28;20197;-70
2022/03/28 06:29:39;;;;;;;15.53;8.37;;;8.00;99.90;;;;;;5097330;28;20468;-70
2022/03/28 06:32:05;;;;;;;13.50;7.30;;;8.00;99.90;;;;;;5097529;28;20567;-70
2022/03/28 06:34:31;;;;;;;12.80;7.60;;;8.10;99.90;;;;;;5097381;28;20210;-70
2022/03/28 06:36:57;;;;;;;13.17;8.00;;;8.20;99.90;;;;;;5097088;28;20443;-70
2022/03/28 06:39:26;;;;;;;14.80;8.33;;;8.40;99.90;;;;;;5097158;28;20781;-69
2022/03/28 06:41:52;;;;;;;19.67;9.27;;;8.40;99.90;;;;;;5097054;28;20431;-70
2022/03/28 06:44:18;;;;;;;14.77;9.37;;;8.50;99.90;;;;;;5098192;28;20418;-70
2022/03/28 06:46:44;;;;;;;16.07;8.93;;;8.60;99.90;;;;;;5098750;28;20193;-70
2022/03/28 06:49:11;;;;;;;24.60;11.17;;;8.80;99.90;;;;;;5098862;28;20427;-70
2022/03/28 06:51:37;;;;;;;20.47;9.20;;;8.80;99.90;;;;;;5098341;28;20472;-70
2022/03/28 06:54:04;;;;;;;16.70;9.93;;;9.00;99.90;;;;;;5098792;28;20427;-70
2022/03/28 06:56:30;;;;;;;16.17;8.97;;;9.10;99.90;;;;;;5097052;28;20864;-70
2022/03/28 06:58:56;;;;;;;15.70;8.80;;;9.20;99.90;;;;;;5098157;28;20418;-70
2022/03/28 07:01:22;;;;;;;18.50;9.70;;;9.30;99.90;;;;;;5097152;28;20419;-70
2022/03/28 07:03:48;;;;;;;20.30;8.60;;;9.40;99.90;;;;;;5097498;28;20755;-70
2022/03/28 07:06:14;;;;;;;18.53;9.37;;;9.50;99.90;;;;;;5089586;28;20429;-70
2022/03/28 07:08:46;;;;;;;17.40;9.77;;;9.70;99.90;;;;;;5068343;28;20461;-71
2022/03/28 07:11:12;;;;;;;15.37;9.43;;;9.80;99.90;;;;;;5085663;28;20300;-70
2022/03/28 07:13:37;;;;;;;17.70;9.83;;;10.00;99.90;;;;;;5097582;28;20454;-71
2022/03/28 07:16:03;;;;;;;19.87;9.60;;;10.20;99.90;;;;;;5097590;28;20186;-70
2022/03/28 07:18:29;;;;;;;20.47;11.73;;;10.30;99.90;;;;;;5097007;28;20320;-70
2022/03/28 07:20:55;;;;;;;20.10;11.97;;;10.40;99.90;;;;;;5096068;28;20514;-70
2022/03/28 07:23:22;;;;;;;21.47;12.67;;;10.60;99.90;;;;;;5096296;28;20673;-70
2022/03/28 07:25:48;;;;;;;24.27;12.27;;;10.60;99.90;;;;;;5096299;28;20656;-70
2022/03/28 07:28:17;;;;;;;20.90;12.90;;;10.80;99.90;;;;;;5096357;28;20442;-70
2022/03/28 07:30:43;;;;;;;23.70;13.37;;;10.80;99.90;;;;;;5085719;28;20467;-70
2022/03/28 07:33:09;;;;;;;19.17;12.30;;;11.00;99.90;;;;;;5084925;28;20475;-70
2022/03/28 07:35:37;;;;;;;21.50;14.07;;;11.10;99.90;;;;;;5095934;28;20442;-70
2022/03/28 07:38:07;;;;;;;20.30;13.20;;;11.20;99.90;;;;;;5095942;28;20461;-70
2022/03/28 07:40:37;;;;;;;23.23;12.73;;;11.40;99.90;;;;;;5096054;28;20731;-70
2022/03/28 07:43:04;;;;;;;18.33;12.60;;;11.50;99.90;;;;;;5087665;28;20948;-70
2022/03/28 07:45:30;;;;;;;21.90;14.57;;;11.60;99.90;;;;;;5082012;28;20428;-70
2022/03/28 07:47:56;;;;;;;20.37;12.00;;;11.70;99.90;;;;;;5090254;28;20446;-70
2022/03/28 07:50:22;;;;;;;23.40;13.83;;;11.90;99.90;;;;;;5095433;28;20477;-70
2022/03/28 07:52:50;;;;;;;20.07;13.10;;;12.00;99.90;;;;;;5095822;28;20636;-70
2022/03/28 07:55:17;;;;;;;24.33;14.33;;;12.10;99.90;;;;;;5095653;28;20451;-70
2022/03/28 07:57:43;;;;;;;28.63;13.80;;;12.20;99.90;;;;;;5095475;28;20444;-70
2022/03/28 08:00:12;;;;;;;25.43;13.90;;;12.40;99.90;;;;;;5095197;28;20432;-70
2022/03/28 08:02:38;;;;;;;22.00;13.83;;;12.50;99.90;;;;;;5095098;28;20780;-70
2022/03/28 08:05:05;;;;;;;27.43;14.50;;;12.60;99.90;;;;;;5074896;28;20540;-69
2022/03/28 08:07:31;;;;;;;20.47;14.37;;;12.70;99.90;;;;;;5075158;28;20546;-70
2022/03/28 08:09:57;;;;;;;22.80;13.13;;;12.70;99.90;;;;;;5073485;28;20546;-69
2022/03/28 08:12:23;;;;;;;23.73;12.77;;;12.80;99.90;;;;;;5079218;28;20431;-70
2022/03/28 08:14:50;;;;;;;25.30;14.10;;;13.00;99.90;;;;;;5089626;28;20212;-69
2022/03/28 08:17:19;;;;;;;20.10;13.47;;;13.00;99.90;;;;;;5094784;28;20218;-69
2022/03/28 08:19:46;;;;;;;23.80;12.97;;;13.20;99.90;;;;;;5095664;28;20462;-69
2022/03/28 08:22:13;;;;;;;28.97;14.67;;;13.30;99.90;;;;;;5095116;28;20435;-69
2022/03/28 08:24:38;;;;;;;24.03;14.57;;;13.40;99.90;;;;;;5095261;28;20484;-69
2022/03/28 08:27:06;;;;;;;20.90;12.77;;;13.50;99.90;;;;;;5094786;28;20992;-70
2022/03/28 08:29:35;;;;;;;24.90;13.50;;;13.60;99.90;;;;;;5095438;28;20682;-69
2022/03/28 08:32:02;;;;;;;26.53;14.97;;;13.60;99.90;;;;;;5095202;28;20930;-71
2022/03/28 08:34:29;;;;;;;24.27;13.97;;;13.80;99.90;;;;;;5095351;28;20430;-84
2022/03/28 08:36:55;;;;;;;22.57;14.10;;;13.90;99.90;;;;;;5096023;28;20997;-70
2022/03/28 08:39:21;;;;;;;24.27;14.70;;;14.10;99.90;;;;;;5095661;28;20428;-70
2022/03/28 08:41:48;;;;;;;21.57;14.50;;;14.30;99.90;;;;;;5078806;28;20484;-70
2022/03/28 08:44:15;;;;;;;22.20;13.20;;;14.30;99.90;;;;;;5094704;28;20511;-69
2022/03/28 08:46:43;;;;;;;26.30;15.30;;;14.50;99.90;;;;;;5094480;28;20507;-69
2022/03/28 08:49:09;;;;;;;21.40;14.47;;;14.70;99.90;;;;;;5094398;28;20953;-70
2022/03/28 08:51:39;;;;;;;22.43;13.87;;;14.80;99.90;;;;;;5075504;28;20475;-69
2022/03/28 08:54:05;;;;;;;21.80;13.97;;;15.00;99.90;;;;;;5085634;28;20939;-69
2022/03/28 08:56:30;;;;;;;23.13;14.33;;;15.10;99.90;;;;;;5094175;28;20487;-69
2022/03/28 08:58:56;;;;;;;24.37;15.43;;;15.20;99.90;;;;;;5094177;28;20420;-69
2022/03/28 09:01:23;;;;;;;23.50;15.63;;;15.40;99.90;;;;;;5081512;28;20202;-69
2022/03/28 09:03:49;;;;;;;26.33;14.77;;;15.30;99.90;;;;;;5083219;28;20214;-69
2022/03/28 09:06:42;;;;;;;31.70;16.00;;;15.50;99.90;;;;;;5069785;28;20445;-70
2022/03/28 09:09:24;;;;;;;19.60;13.17;;;15.80;99.90;;;;;;5079529;28;20417;-69
2022/03/28 09:11:52;;;;;;;30.30;15.23;;;15.90;99.90;;;;;;5094201;28;20470;-69
2022/03/28 09:14:40;;;;;;;28.83;15.23;;;16.00;99.90;;;;;;5093981;28;20415;-70
2022/03/28 09:17:14;;;;;;;24.90;15.07;;;16.10;99.90;;;;;;5093868;28;20867;-70
2022/03/28 09:19:52;;;;;;;29.07;16.20;;;16.20;99.90;;;;;;5094100;28;20420;-70
2022/03/28 09:22:23;;;;;;;25.80;13.50;;;16.40;99.90;;;;;;5093894;28;20431;-70
2022/03/28 09:24:51;;;;;;;27.10;15.83;;;16.50;99.90;;;;;;5093966;28;20531;-69
2022/03/28 09:27:22;;;;;;;26.17;15.27;;;17.00;99.90;;;;;;5093677;28;20447;-69
2022/03/28 09:30:01;;;;;;;26.30;15.80;;;18.70;99.90;;;;;;5094213;28;20554;-69
2022/03/28 09:32:32;;;;;;;24.70;14.03;;;20.90;99.90;;;;;;5094051;28;20930;-69
2022/03/28 09:35:08;;;;;;;23.23;14.33;;;24.20;99.90;;;;;;5094352;28;20891;-70
2022/03/28 09:38:15;;;;;;;23.60;14.00;;;25.10;99.90;;;;;;5093377;28;20769;-69
2022/03/28 09:40:43;;;;;;;20.63;14.17;;;26.40;94.30;;;;;;5093842;28;20426;-69
2022/03/28 09:43:20;;;;;;;21.13;12.30;;;28.20;86.80;;;;;;5094032;28;20412;-70
2022/03/28 09:45:51;;;;;;;19.30;13.20;;;29.60;73.70;;;;;;5093904;28;20430;-69
2022/03/28 09:48:19;;;;;;;19.30;12.83;;;30.80;57.30;;;;;;5093717;28;20439;-69
2022/03/28 09:51:03;;;;;;;21.00;13.60;;;31.00;59.00;;;;;;5093283;28;20463;-69
2022/03/28 09:53:39;;;;;;;17.97;12.43;;;32.20;55.20;;;;;;5093683;28;20505;-70
2022/03/28 09:56:06;;;;;;;18.87;13.40;;;32.50;48.50;;;;;;5094523;28;20792;-69
2022/03/28 09:58:56;;;;;;;19.83;13.00;;;32.20;47.80;;;;;;5097781;28;20412;-70
2022/03/28 10:01:25;;;;;;;18.63;13.00;;;32.70;46.10;;;;;;5097141;28;21058;-69
2022/03/28 10:03:54;;;;;;;17.40;13.70;;;33.80;45.90;;;;;;5097785;28;20438;-69
2022/03/28 10:06:21;;;;;;;15.60;13.10;;;34.30;43.40;;;;;;5097529;28;20475;-70
2022/03/28 10:08:48;;;;;;;16.60;12.80;;;34.60;43.00;;;;;;5097561;28;20461;-70
2022/03/28 10:11:14;;;;;;;14.93;11.63;;;34.60;40.80;;;;;;5097511;28;20462;-69
2022/03/28 10:13:40;;;;;;;19.90;13.40;;;35.40;41.40;;;;;;5097280;28;20407;-70
2022/03/28 10:16:07;;;;;;;19.13;13.27;;;35.30;40.00;;;;;;5097309;28;20969;-70
2022/03/28 10:18:38;;;;;;;16.47;11.87;;;35.90;38.40;;;;;;5097379;28;20519;-70
2022/03/28 10:21:07;;;;;;;15.00;11.63;;;35.90;36.50;;;;;;5097421;28;20470;-70
2022/03/28 10:23:42;;;;;;;12.27;9.90;;;35.70;35.60;;;;;;5097415;28;20794;-70
2022/03/28 10:26:09;;;;;;;17.00;11.63;;;35.50;36.90;;;;;;5096857;28;20419;-70
2022/03/28 10:28:35;;;;;;;15.20;12.30;;;35.50;35.70;;;;;;5096956;28;20427;-69
2022/03/28 10:31:13;;;;;;;14.87;11.30;;;34.30;35.40;;;;;;5097133;28;20427;-70
2022/03/28 10:33:51;;;;;;;16.77;10.50;;;34.20;36.10;;;;;;5097553;28;20419;-70
2022/03/28 10:36:37;;;;;;;14.73;11.20;;;33.70;35.90;;;;;;5096665;28;20781;-70
2022/03/28 10:39:30;;;;;;;16.10;11.10;;;33.60;35.80;;;;;;5096794;28;20419;-70
2022/03/28 10:42:05;;;;;;;13.93;10.27;;;34.50;35.60;;;;;;5060869;28;20441;-70
2022/03/28 10:45:03;;;;;;;13.30;9.60;;;35.40;34.80;;;;;;5076749;28;20491;-70
2022/03/28 10:47:41;;;;;;;17.03;10.60;;;35.40;34.40;;;;;;5084520;28;20455;-70
2022/03/28 10:50:10;;;;;;;15.10;11.33;;;36.00;34.80;;;;;;5073260;28;20444;-68
2022/03/28 10:52:36;;;;;;;14.87;12.03;;;35.80;33.50;;;;;;5081311;28;20434;-68
2022/03/28 10:55:07;;;;;;;17.93;11.77;;;34.50;33.50;;;;;;5077511;28;20507;-70
2022/03/28 10:57:35;;;;;;;14.60;10.70;;;33.90;35.10;;;;;;5071464;28;20440;-70
2022/03/28 11:00:08;;;;;;;15.60;12.30;;;32.90;36.00;;;;;;5083776;28;20505;-70
2022/03/28 11:02:35;;;;;;;17.27;11.90;;;33.40;37.10;;;;;;5067874;28;20448;-69
2022/03/28 11:05:12;;;;;;;18.00;12.10;;;33.60;35.90;;;;;;5072244;28;20440;-70
2022/03/28 11:07:38;;;;;;;16.83;11.90;;;33.20;36.90;;;;;;5080003;28;20486;-70
2022/03/28 11:10:11;;;;;;;15.87;11.80;;;33.60;37.70;;;;;;5092740;28;20456;-70
2022/03/28 11:12:41;;;;;;;17.20;10.90;;;32.90;36.80;;;;;;5096535;28;20182;-70
2022/03/28 11:15:24;;;;;;;16.37;12.00;;;32.80;38.50;;;;;;5096554;28;20419;-70
2022/03/28 11:17:58;;;;;;;16.90;13.50;;;33.10;37.70;;;;;;5096156;28;20439;-70
2022/03/28 11:20:28;;;;;;;16.93;12.67;;;31.90;38.20;;;;;;5096275;28;20459;-70
2022/03/28 11:23:06;;;;;;;15.03;11.90;;;32.50;38.50;;;;;;5096346;28;20414;-70
2022/03/28 11:25:38;;;;;;;20.17;13.50;;;33.80;39.20;;;;;;5096248;28;20419;-70
2022/03/28 11:28:25;;;;;;;16.17;12.20;;;34.20;37.00;;;;;;5096214;28;20436;-69
2022/03/28 11:31:07;;;;;;;18.37;12.67;;;33.70;38.50;;;;;;5096242;28;20416;-70
2022/03/28 11:33:38;;;;;;;14.00;10.90;;;34.00;37.70;;;;;;5096185;28;20422;-69
2022/03/28 11:36:15;;;;;;;18.03;14.03;;;36.00;36.50;;;;;;5096072;28;20957;-70
2022/03/28 11:38:50;;;;;;;19.13;13.13;;;36.70;35.10;;;;;;5095973;28;20469;-70
2022/03/28 11:41:19;;;;;;;17.33;12.80;;;36.70;35.30;;;;;;5096007;28;20461;-70
2022/03/28 11:43:47;;;;;;;16.67;12.90;;;37.30;34.70;;;;;;5095822;28;20408;-70
2022/03/28 11:46:22;;;;;;;16.97;12.67;;;37.50;33.30;;;;;;5095853;28;20791;-70
2022/03/28 11:49:05;;;;;;;17.30;13.03;;;38.20;33.30;;;;;;5095946;28;20943;-70
2022/03/28 11:51:35;;;;;;;18.13;12.60;;;38.90;32.80;;;;;;5095891;28;20454;-70
2022/03/28 11:54:09;;;;;;;14.70;11.40;;;39.00;33.50;;;;;;5095652;28;20465;-70
2022/03/28 11:59:22;;;;;;;18.47;13.43;;;38.60;32.90;;;;;;5098352;28;20479;-69
2022/03/28 12:01:58;;;;;;;15.47;12.33;;;38.00;31.30;;;;;;5084168;28;20829;-69
2022/03/28 12:04:24;;;;;;;14.50;11.87;;;37.50;31.30;;;;;;5081106;23;20875;-84
2022/03/28 12:06:51;;;;;;;15.40;12.03;;;37.80;31.50;;;;;;5081756;28;20426;-84
2022/03/28 12:09:17;;;;;;;16.10;11.80;;;37.80;32.00;;;;;;5077836;28;20180;-83
2022/03/28 12:11:57;;;;;;;15.33;12.30;;;38.50;32.10;;;;;;5087712;28;20471;-84
2022/03/28 12:14:23;;;;;;;14.87;11.80;;;38.30;32.20;;;;;;5066202;28;20453;-84
2022/03/28 12:16:54;;;;;;;16.93;13.47;;;37.20;32.40;;;;;;5067165;28;20429;-82
2022/03/28 12:19:22;;;;;;;17.00;12.47;;;35.50;32.70;;;;;;5072212;28;20507;-83
2022/03/28 12:21:49;;;;;;;14.97;11.37;;;34.80;33.20;;;;;;5065726;28;20469;-85
2022/03/28 12:24:15;;;;;;;15.30;11.90;;;34.70;34.60;;;;;;5065667;28;20976;-83
2022/03/28 12:26:49;;;;;;;17.30;13.67;;;35.60;35.10;;;;;;5058924;28;20422;-85
2022/03/28 12:29:15;;;;;;;17.23;12.07;;;36.30;34.60;;;;;;5078528;28;20433;-85
2022/03/28 12:31:48;;;;;;;16.40;11.73;;;36.60;33.90;;;;;;5077495;28;20845;-85
2022/03/28 12:34:17;;;;;;;12.00;9.97;;;37.50;32.90;;;;;;5071071;28;20444;-84
2022/03/28 12:36:43;;;;;;;16.83;10.57;;;36.00;30.60;;;;;;5070369;28;20943;-85
2022/03/28 12:39:10;;;;;;;14.07;10.80;;;36.60;31.80;;;;;;5071178;28;20428;-85
2022/03/28 12:41:47;;;;;;;14.90;10.37;;;37.80;31.50;;;;;;5072011;28;20273;-84
2022/03/28 12:44:16;;;;;;;12.13;10.70;;;38.30;30.30;;;;;;5072441;28;20860;-86
2022/03/28 12:46:44;;;;;;;14.30;10.50;;;38.90;30.70;;;;;;5071821;28;20420;-84
2022/03/28 12:49:16;;;;;;;16.73;10.70;;;38.40;29.30;;;;;;5072059;28;20894;-83